Time,TemperatureF,DewpointF,PressureIn,WindDirection,WindDirectionDegrees,WindSpeedMPH,WindSpeedGustMPH,Humidity,HourlyPrecipIn,Conditions,Clouds,dailyrainin,SoftwareType,DateUTC
2013-04-05 00:00:00,26.8,12.8,30.03,NNW,343,0.0,0.0,55,0.00,,,0.00,WeatherDisplay:10.37,2013-04-05 05:00:00,
2013-04-05 00:05:00,26.4,12.8,30.03,NNW,343,0.0,0.0,56,0.00,,,0.00,WeatherDisplay:10.37,2013-04-05 05:05:00,
2013-04-05 00:10:00,26.1,12.9,30.03,NNW,343,0.0,0.0,57,0.00,,,0.00,WeatherDisplay:10.37,2013-04-05 05:10:00,
2013-04-05 00:15:00,25.9,13.1,30.03,NNW,343,0.0,0.0,58,0.00,,,0.00,WeatherDisplay:10.37,2013-04-05 05:15:00,
2013-04-05 00:21:00,25.7,12.9,30.06,NNW,343,0.0,0.0,58,0.00,,,0.00,WeatherDisplay:10.37,2013-04-05 05:21:00,
2013-04-05 00:26:00,25.5,13.2,30.06,NNW,343,0.0,0.0,59,0.00,,,0.00,WeatherDisplay:10.37,2013-04-05 05:26:00,
2013-04-05 00:31:00,25.5,13.9,30.06,West,265,0.0,0.0,61,0.00,,,0.00,WeatherDisplay:10.37,2013-04-05 05:31:00,
2013-04-05 00:36:00,25.3,13.8,30.06,West,262,0.0,0.0,61,0.00,,,0.00,WeatherDisplay:10.37,2013-04-05 05:36:00,
2013-04-05 00:42:00,25.2,13.6,30.06,West,262,0.0,0.0,61,0.00,,,0.00,WeatherDisplay:10.37,2013-04-05 05:42:00,
2013-04-05 00:47:00,25.0,13.8,30.06,West,262,0.0,0.0,62,0.00,,,0.00,WeatherDisplay:10.37,2013-04-05 05:47:00,
2013-04-05 00:52:00,24.8,13.6,30.06,West,262,0.0,0.0,62,0.00,,,0.00,WeatherDisplay:10.37,2013-04-05 05:52:00,
2013-04-05 00:57:00,24.8,13.6,30.06,West,262,0.0,0.0,62,0.00,,,0.00,WeatherDisplay:10.37,2013-04-05 05:57:00,
2013-04-05 01:02:00,24.6,13.4,30.06,West,262,0.0,0.0,62,0.00,,,0.00,WeatherDisplay:10.37,2013-04-05 06:02:00,
2013-04-05 01:07:00,24.6,13.4,30.06,West,262,0.0,0.0,62,0.00,,,0.00,WeatherDisplay:10.37,2013-04-05 06:07:00,
2013-04-05 01:12:00,24.4,13.3,30.06,West,262,0.0,0.0,62,0.00,,,0.00,WeatherDisplay:10.37,2013-04-05 06:12:00,
2013-04-05 01:17:00,24.3,13.5,30.06,West,262,0.0,0.0,63,0.00,,,0.00,WeatherDisplay:10.37,2013-04-05 06:17:00,
2013-04-05 01:22:00,24.1,13.3,30.06,West,262,0.0,0.0,63,0.00,,,0.00,WeatherDisplay:10.37,2013-04-05 06:22:00,
2013-04-05 01:27:00,23.9,13.1,30.06,West,262,0.0,0.0,63,0.00,,,0.00,WeatherDisplay:10.37,2013-04-05 06:27:00,
2013-04-05 01:33:00,23.9,13.1,30.06,West,262,0.0,0.0,63,0.00,,,0.00,WeatherDisplay:10.37,2013-04-05 06:33:00,
2013-04-05 01:38:00,23.9,13.1,30.06,West,262,0.0,0.0,63,0.00,,,0.00,WeatherDisplay:10.37,2013-04-05 06:38:00,
2013-04-05 01:43:00,23.9,13.1,30.06,West,262,0.0,0.0,63,0.00,,,0.00,WeatherDisplay:10.37,2013-04-05 06:43:00,
2013-04-05 01:49:00,23.7,13.0,30.06,West,262,0.0,0.0,63,0.00,,,0.00,WeatherDisplay:10.37,2013-04-05 06:49:00,
2013-04-05 01:54:00,23.7,13.0,30.06,West,262,0.0,0.0,63,0.00,,,0.00,WeatherDisplay:10.37,2013-04-05 06:54:00,
2013-04-05 01:59:00,23.5,12.8,30.06,West,262,0.0,0.0,63,0.00,,,0.00,WeatherDisplay:10.37,2013-04-05 06:59:00,
2013-04-05 02:05:00,23.5,12.8,30.06,SW,227,0.0,0.0,63,0.00,,,0.00,WeatherDisplay:10.37,2013-04-05 07:05:00,
2013-04-05 02:10:00,23.5,12.8,30.06,SW,225,0.0,0.0,63,0.00,,,0.00,WeatherDisplay:10.37,2013-04-05 07:10:00,
2013-04-05 02:15:00,23.4,12.6,30.06,SW,221,0.0,0.0,63,0.00,,,0.00,WeatherDisplay:10.37,2013-04-05 07:15:00,
2013-04-05 02:20:00,23.4,13.0,30.06,SW,220,0.0,0.0,64,0.00,,,0.00,WeatherDisplay:10.37,2013-04-05 07:20:00,
2013-04-05 02:25:00,23.4,13.0,30.06,SW,220,0.0,0.0,64,0.00,,,0.00,WeatherDisplay:10.37,2013-04-05 07:25:00,
2013-04-05 02:31:00,23.2,12.8,30.06,SW,220,0.0,0.0,64,0.00,,,0.00,WeatherDisplay:10.37,2013-04-05 07:31:00,
2013-04-05 02:36:00,23.2,12.4,30.09,SW,220,0.0,0.0,63,0.00,,,0.00,WeatherDisplay:10.37,2013-04-05 07:36:00,
2013-04-05 02:41:00,23.4,12.6,30.09,North,353,0.0,0.0,63,0.00,,,0.00,WeatherDisplay:10.37,2013-04-05 07:41:00,
2013-04-05 02:46:00,23.5,12.8,30.09,North,353,0.0,0.0,63,0.00,,,0.00,WeatherDisplay:10.37,2013-04-05 07:46:00,
2013-04-05 02:51:00,23.7,13.0,30.09,North,353,0.0,0.0,63,0.00,,,0.00,WeatherDisplay:10.37,2013-04-05 07:51:00,
2013-04-05 02:56:00,23.9,13.1,30.09,North,353,0.0,0.0,63,0.00,,,0.00,WeatherDisplay:10.37,2013-04-05 07:56:00,
2013-04-05 03:02:00,23.9,13.1,30.09,North,353,0.0,0.0,63,0.00,,,0.00,WeatherDisplay:10.37,2013-04-05 08:02:00,
2013-04-05 03:07:00,23.7,13.0,30.06,North,353,0.0,0.0,63,0.00,,,0.00,WeatherDisplay:10.37,2013-04-05 08:07:00,
2013-04-05 03:12:00,23.5,12.8,30.06,North,353,0.0,0.0,63,0.00,,,0.00,WeatherDisplay:10.37,2013-04-05 08:12:00,
2013-04-05 03:17:00,23.2,12.4,30.09,North,353,0.0,0.0,63,0.00,,,0.00,WeatherDisplay:10.37,2013-04-05 08:17:00,
2013-04-05 03:22:00,23.0,12.3,30.09,North,353,0.0,0.0,63,0.00,,,0.00,WeatherDisplay:10.37,2013-04-05 08:22:00,
2013-04-05 03:27:00,22.8,12.1,30.09,North,353,0.0,0.0,63,0.00,,,0.00,WeatherDisplay:10.37,2013-04-05 08:27:00,
2013-04-05 03:32:00,22.5,11.8,30.09,North,353,0.0,0.0,63,0.00,,,0.00,WeatherDisplay:10.37,2013-04-05 08:32:00,
2013-04-05 03:37:00,22.3,11.6,30.09,North,353,0.0,0.0,63,0.00,,,0.00,WeatherDisplay:10.37,2013-04-05 08:37:00,
2013-04-05 03:43:00,22.1,11.4,30.09,North,353,0.0,0.0,63,0.00,,,0.00,WeatherDisplay:10.37,2013-04-05 08:43:00,
2013-04-05 03:48:00,21.9,11.2,30.09,North,353,0.0,0.0,63,0.00,,,0.00,WeatherDisplay:10.37,2013-04-05 08:48:00,
2013-04-05 03:53:00,21.7,11.1,30.09,North,353,0.0,0.0,63,0.00,,,0.00,WeatherDisplay:10.37,2013-04-05 08:53:00,
2013-04-05 03:58:00,21.6,10.9,30.09,North,353,0.0,0.0,63,0.00,,,0.00,WeatherDisplay:10.37,2013-04-05 08:58:00,
2013-04-05 04:04:00,21.4,11.1,30.09,North,353,0.0,0.0,64,0.00,,,0.00,WeatherDisplay:10.37,2013-04-05 09:04:00,
2013-04-05 04:09:00,21.2,10.9,30.09,North,353,0.0,0.0,64,0.00,,,0.00,WeatherDisplay:10.37,2013-04-05 09:09:00,
2013-04-05 04:14:00,21.2,10.9,30.09,North,353,0.0,0.0,64,0.00,,,0.00,WeatherDisplay:10.37,2013-04-05 09:14:00,
2013-04-05 04:19:00,20.8,10.6,30.12,North,353,0.0,0.0,64,0.00,,,0.00,WeatherDisplay:10.37,2013-04-05 09:19:00,
2013-04-05 04:24:00,20.8,10.6,30.12,North,353,0.0,0.0,64,0.00,,,0.00,WeatherDisplay:10.37,2013-04-05 09:24:00,
2013-04-05 04:29:00,20.8,10.6,30.12,North,353,0.0,0.0,64,0.00,,,0.00,WeatherDisplay:10.37,2013-04-05 09:29:00,
2013-04-05 04:35:00,20.7,10.7,30.12,North,353,0.0,0.0,65,0.00,,,0.00,WeatherDisplay:10.37,2013-04-05 09:35:00,
2013-04-05 04:40:00,20.7,10.7,30.12,North,353,0.0,0.0,65,0.00,,,0.00,WeatherDisplay:10.37,2013-04-05 09:40:00,
2013-04-05 04:45:00,20.5,10.6,30.12,North,353,0.0,0.0,65,0.00,,,0.00,WeatherDisplay:10.37,2013-04-05 09:45:00,
2013-04-05 04:50:00,20.5,10.6,30.12,North,353,0.0,0.0,65,0.00,,,0.00,WeatherDisplay:10.37,2013-04-05 09:50:00,
2013-04-05 04:55:00,20.5,10.9,30.12,North,353,0.0,0.0,66,0.00,,,0.00,WeatherDisplay:10.37,2013-04-05 09:55:00,
2013-04-05 05:01:00,20.3,10.7,30.12,North,353,0.0,0.0,66,0.00,,,0.00,WeatherDisplay:10.37,2013-04-05 10:01:00,
2013-04-05 05:06:00,20.3,10.7,30.12,North,353,0.0,0.0,66,0.00,,,0.00,WeatherDisplay:10.37,2013-04-05 10:06:00,
2013-04-05 05:11:00,20.1,10.6,30.12,North,353,0.0,0.0,66,0.00,,,0.00,WeatherDisplay:10.37,2013-04-05 10:11:00,
2013-04-05 05:17:00,20.3,11.1,30.12,North,353,0.0,0.0,67,0.00,,,0.00,WeatherDisplay:10.37,2013-04-05 10:17:00,
2013-04-05 05:22:00,20.1,10.9,30.12,North,353,0.0,0.0,67,0.00,,,0.00,WeatherDisplay:10.37,2013-04-05 10:22:00,
2013-04-05 05:27:00,20.1,10.9,30.12,North,353,0.0,0.0,67,0.00,,,0.00,WeatherDisplay:10.37,2013-04-05 10:27:00,
2013-04-05 05:32:00,19.9,10.7,30.15,North,353,0.0,0.0,67,0.00,,,0.00,WeatherDisplay:10.37,2013-04-05 10:32:00,
2013-04-05 05:37:00,19.8,10.6,30.15,North,353,0.0,0.0,67,0.00,,,0.00,WeatherDisplay:10.37,2013-04-05 10:37:00,
2013-04-05 05:42:00,19.8,10.6,30.15,North,353,0.0,0.0,67,0.00,,,0.00,WeatherDisplay:10.37,2013-04-05 10:42:00,
2013-04-05 05:47:00,19.6,10.4,30.15,North,353,0.0,0.0,67,0.00,,,0.00,WeatherDisplay:10.37,2013-04-05 10:47:00,
2013-04-05 05:52:00,19.6,10.4,30.15,North,353,0.0,0.0,67,0.00,,,0.00,WeatherDisplay:10.37,2013-04-05 10:52:00,
2013-04-05 05:57:00,19.4,10.6,30.15,North,353,0.0,0.0,68,0.00,,,0.00,WeatherDisplay:10.37,2013-04-05 10:57:00,
2013-04-05 06:02:00,19.2,10.4,30.15,North,353,0.0,0.0,68,0.00,,,0.00,WeatherDisplay:10.37,2013-04-05 11:02:00,
2013-04-05 06:07:00,19.2,10.4,30.15,North,353,0.0,0.0,68,0.00,,,0.00,WeatherDisplay:10.37,2013-04-05 11:07:00,
2013-04-05 06:12:00,19.0,10.5,30.15,North,353,0.0,0.0,69,0.00,,,0.00,WeatherDisplay:10.37,2013-04-05 11:12:00,
2013-04-05 06:17:00,19.0,10.5,30.15,North,353,0.0,0.0,69,0.00,,,0.00,WeatherDisplay:10.37,2013-04-05 11:17:00,
2013-04-05 06:22:00,19.2,10.7,30.15,North,353,0.0,0.0,69,0.00,,,0.00,WeatherDisplay:10.37,2013-04-05 11:22:00,
2013-04-05 06:27:00,19.2,10.7,30.15,North,353,0.0,0.0,69,0.00,,,0.00,WeatherDisplay:10.37,2013-04-05 11:27:00,
2013-04-05 06:33:00,19.2,10.7,30.15,North,353,0.0,0.0,69,0.00,,,0.00,WeatherDisplay:10.37,2013-04-05 11:33:00,
2013-04-05 06:38:00,19.0,10.5,30.15,North,353,0.0,0.0,69,0.00,,,0.00,WeatherDisplay:10.37,2013-04-05 11:38:00,
2013-04-05 06:43:00,18.9,10.4,30.15,North,353,0.0,0.0,69,0.00,,,0.00,WeatherDisplay:10.37,2013-04-05 11:43:00,
2013-04-05 06:48:00,18.9,10.7,30.15,North,353,0.0,0.0,70,0.00,,,0.00,WeatherDisplay:10.37,2013-04-05 11:48:00,
2013-04-05 06:53:00,19.0,10.9,30.15,North,353,0.0,0.0,70,0.00,,,0.00,WeatherDisplay:10.37,2013-04-05 11:53:00,
2013-04-05 06:58:00,19.0,10.9,30.15,North,353,0.0,0.0,70,0.00,,,0.00,WeatherDisplay:10.37,2013-04-05 11:58:00,
2013-04-05 07:04:00,19.2,11.0,30.15,North,353,0.0,0.0,70,0.00,,,0.00,WeatherDisplay:10.37,2013-04-05 12:04:00,
2013-04-05 07:09:00,19.8,11.6,30.15,North,353,0.0,0.0,70,0.00,,,0.00,WeatherDisplay:10.37,2013-04-05 12:09:00,
2013-04-05 07:14:00,20.3,12.4,30.15,North,353,0.0,0.0,71,0.00,,,0.00,WeatherDisplay:10.37,2013-04-05 12:14:00,
2013-04-05 07:19:00,20.5,12.6,30.15,North,353,0.0,0.0,71,0.00,,,0.00,WeatherDisplay:10.37,2013-04-05 12:19:00,
2013-04-05 07:24:00,20.8,13.2,30.15,North,353,0.0,0.0,72,0.00,,,0.00,WeatherDisplay:10.37,2013-04-05 12:24:00,
2013-04-05 07:29:00,21.0,13.4,30.15,North,353,0.0,0.0,72,0.00,,,0.00,WeatherDisplay:10.37,2013-04-05 12:29:00,
2013-04-05 07:34:00,21.4,13.8,30.15,North,353,0.0,0.0,72,0.00,,,0.00,WeatherDisplay:10.37,2013-04-05 12:34:00,
2013-04-05 07:39:00,21.9,14.3,30.15,North,353,0.0,0.0,72,0.00,,,0.00,WeatherDisplay:10.37,2013-04-05 12:39:00,
2013-04-05 07:45:00,22.6,15.0,30.15,North,353,0.0,0.0,72,0.00,,,0.00,WeatherDisplay:10.37,2013-04-05 12:45:00,
2013-04-05 07:50:00,23.4,15.7,30.15,North,353,0.0,0.0,72,0.00,,,0.00,WeatherDisplay:10.37,2013-04-05 12:50:00,
2013-04-05 07:55:00,24.4,16.7,30.15,North,353,0.0,0.0,72,0.00,,,0.00,WeatherDisplay:10.37,2013-04-05 12:55:00,
2013-04-05 08:00:00,25.7,17.6,30.15,North,353,0.0,0.0,71,0.00,,,0.00,WeatherDisplay:10.37,2013-04-05 13:00:00,
2013-04-05 08:05:00,27.1,18.3,30.15,ENE,74,0.0,0.0,69,0.00,,,0.00,WeatherDisplay:10.37,2013-04-05 13:05:00,
2013-04-05 08:10:00,28.4,18.1,30.15,ENE,72,0.0,0.0,65,0.00,,,0.00,WeatherDisplay:10.37,2013-04-05 13:10:00,
2013-04-05 08:15:00,30.2,18.7,30.15,ENE,77,0.0,0.0,62,0.00,,,0.00,WeatherDisplay:10.37,2013-04-05 13:15:00,
2013-04-05 08:21:00,32.0,19.7,30.15,ENE,64,4.6,4.6,60,0.00,,,0.00,WeatherDisplay:10.37,2013-04-05 13:21:00,
2013-04-05 08:26:00,33.4,19.4,30.15,NE,35,3.5,3.5,56,0.00,,,0.00,WeatherDisplay:10.37,2013-04-05 13:26:00,
2013-04-05 08:31:00,34.5,19.1,30.15,East,79,5.8,5.8,53,0.00,,,0.00,WeatherDisplay:10.37,2013-04-05 13:31:00,
2013-04-05 08:37:00,35.1,19.2,30.15,ENE,67,6.3,6.3,52,0.00,,,0.00,WeatherDisplay:10.37,2013-04-05 13:37:00,
2013-04-05 08:43:00,35.4,19.1,30.15,East,93,5.8,5.8,51,0.00,,,0.00,WeatherDisplay:10.37,2013-04-05 13:43:00,
2013-04-05 08:48:00,35.4,19.1,30.15,ENE,74,4.0,4.0,51,0.00,,,0.00,WeatherDisplay:10.37,2013-04-05 13:48:00,
2013-04-05 08:53:00,36.0,19.1,30.15,ENE,71,3.5,3.6,50,0.00,,,0.00,WeatherDisplay:10.37,2013-04-05 13:53:00,
2013-04-05 08:58:00,36.5,19.6,30.15,East,95,3.5,3.5,50,0.00,,,0.00,WeatherDisplay:10.37,2013-04-05 13:58:00,
2013-04-05 09:04:00,36.7,19.8,30.15,East,90,5.8,5.8,50,0.00,,,0.00,WeatherDisplay:10.37,2013-04-05 14:04:00,
2013-04-05 09:09:00,36.7,19.8,30.15,NE,54,3.5,3.6,50,0.00,,,0.00,WeatherDisplay:10.37,2013-04-05 14:09:00,
2013-04-05 09:14:00,37.0,20.1,30.15,East,93,8.1,8.1,50,0.00,,,0.00,WeatherDisplay:10.37,2013-04-05 14:14:00,
2013-04-05 09:19:00,37.4,20.0,30.15,ENE,68,5.8,5.8,49,0.00,,,0.00,WeatherDisplay:10.37,2013-04-05 14:19:00,
2013-04-05 09:24:00,37.6,20.1,30.15,ENE,59,5.8,5.8,49,0.00,,,0.00,WeatherDisplay:10.37,2013-04-05 14:24:00,
2013-04-05 09:29:00,37.8,20.3,30.15,ENE,74,5.8,5.8,49,0.00,,,0.00,WeatherDisplay:10.37,2013-04-05 14:29:00,
2013-04-05 09:34:00,37.9,20.5,30.15,ENE,72,8.1,8.1,49,0.00,,,0.00,WeatherDisplay:10.37,2013-04-05 14:34:00,
2013-04-05 09:39:00,37.9,20.5,30.15,North,0,5.8,5.8,49,0.00,,,0.00,WeatherDisplay:10.37,2013-04-05 14:39:00,
2013-04-05 09:44:00,37.9,20.5,30.15,East,82,4.6,4.6,49,0.00,,,0.00,WeatherDisplay:10.37,2013-04-05 14:44:00,
2013-04-05 09:50:00,38.5,21.0,30.15,East,82,4.6,4.6,49,0.00,,,0.00,WeatherDisplay:10.37,2013-04-05 14:50:00,
2013-04-05 09:55:00,38.8,21.3,30.15,East,87,5.8,5.8,49,0.00,,,0.00,WeatherDisplay:10.37,2013-04-05 14:55:00,
2013-04-05 10:00:00,39.4,20.3,30.15,East,97,3.5,3.5,46,0.00,,,0.00,WeatherDisplay:10.37,2013-04-05 15:00:00,
2013-04-05 10:05:00,39.9,20.8,30.15,ENE,78,4.6,4.6,46,0.00,,,0.00,WeatherDisplay:10.37,2013-04-05 15:05:00,
2013-04-05 10:10:00,40.3,21.1,30.15,ENE,73,5.8,5.8,46,0.00,,,0.00,WeatherDisplay:10.37,2013-04-05 15:10:00,
2013-04-05 10:15:00,39.9,20.8,30.15,ESE,115,3.5,3.5,46,0.00,,,0.00,WeatherDisplay:10.37,2013-04-05 15:15:00,
2013-04-05 10:21:00,39.9,20.8,30.15,East,92,4.0,4.0,46,0.00,,,0.00,WeatherDisplay:10.37,2013-04-05 15:21:00,
2013-04-05 10:26:00,39.7,20.6,30.15,East,87,8.1,8.1,46,0.00,,,0.00,WeatherDisplay:10.37,2013-04-05 15:26:00,
2013-04-05 10:31:00,39.7,20.6,30.15,East,95,7.6,7.6,46,0.00,,,0.00,WeatherDisplay:10.37,2013-04-05 15:31:00,
2013-04-05 10:36:00,39.7,19.0,30.15,East,80,8.1,8.1,43,0.00,,,0.00,WeatherDisplay:10.37,2013-04-05 15:36:00,
2013-04-05 10:41:00,39.7,19.0,30.15,ESE,109,5.8,5.8,43,0.00,,,0.00,WeatherDisplay:10.37,2013-04-05 15:41:00,
2013-04-05 10:46:00,39.9,19.2,30.15,East,87,5.8,5.8,43,0.00,,,0.00,WeatherDisplay:10.37,2013-04-05 15:46:00,
2013-04-05 10:51:00,40.1,19.4,30.15,East,80,5.8,5.8,43,0.00,,,0.00,WeatherDisplay:10.37,2013-04-05 15:51:00,
2013-04-05 10:56:00,40.3,19.5,30.15,East,88,5.8,5.8,43,0.00,,,0.00,WeatherDisplay:10.37,2013-04-05 15:56:00,
2013-04-05 11:01:00,40.6,19.9,30.15,East,93,4.0,4.0,43,0.00,,,0.00,WeatherDisplay:10.37,2013-04-05 16:01:00,
2013-04-05 11:07:00,41.0,20.2,30.15,East,99,4.6,4.6,43,0.00,,,0.00,WeatherDisplay:10.37,2013-04-05 16:07:00,
2013-04-05 11:12:00,41.2,20.3,30.15,ENE,76,5.8,5.8,43,0.00,,,0.00,WeatherDisplay:10.37,2013-04-05 16:12:00,
2013-04-05 11:17:00,41.0,20.2,30.15,NNE,21,5.8,5.8,43,0.00,,,0.00,WeatherDisplay:10.37,2013-04-05 16:17:00,
2013-04-05 11:22:00,41.2,20.3,30.15,East,95,5.8,5.8,43,0.00,,,0.00,WeatherDisplay:10.37,2013-04-05 16:22:00,
2013-04-05 11:27:00,41.7,20.8,30.15,East,93,6.9,6.9,43,0.00,,,0.00,WeatherDisplay:10.37,2013-04-05 16:27:00,
2013-04-05 11:32:00,41.9,21.0,30.15,East,83,9.2,9.2,43,0.00,,,0.00,WeatherDisplay:10.37,2013-04-05 16:32:00,
2013-04-05 11:38:00,42.1,21.2,30.15,East,79,8.1,8.1,43,0.00,,,0.00,WeatherDisplay:10.37,2013-04-05 16:38:00,
2013-04-05 11:43:00,42.1,21.2,30.15,East,85,5.8,5.8,43,0.00,,,0.00,WeatherDisplay:10.37,2013-04-05 16:43:00,
2013-04-05 11:48:00,42.3,21.3,30.15,East,96,5.8,5.8,43,0.00,,,0.00,WeatherDisplay:10.37,2013-04-05 16:48:00,
2013-04-05 11:53:00,42.4,21.5,30.15,East,88,3.5,3.5,43,0.00,,,0.00,WeatherDisplay:10.37,2013-04-05 16:53:00,
2013-04-05 11:58:00,42.8,21.8,30.15,East,88,4.6,4.6,43,0.00,,,0.00,WeatherDisplay:10.37,2013-04-05 16:58:00,
2013-04-05 12:03:00,43.0,22.0,30.12,East,85,3.5,0.0,43,0.00,,,0.00,WeatherDisplay:10.37,2013-04-05 17:03:00,
2013-04-05 12:08:00,43.7,22.6,30.12,East,80,3.5,3.5,43,0.00,,,0.00,WeatherDisplay:10.37,2013-04-05 17:08:00,
2013-04-05 12:14:00,43.7,22.6,30.12,East,85,5.8,5.8,43,0.00,,,0.00,WeatherDisplay:10.37,2013-04-05 17:14:00,
2013-04-05 12:19:00,43.9,22.8,30.15,SE,128,3.5,0.0,43,0.00,,,0.00,WeatherDisplay:10.37,2013-04-05 17:19:00,
2013-04-05 12:24:00,44.2,23.1,30.15,East,98,3.5,0.0,43,0.00,,,0.00,WeatherDisplay:10.37,2013-04-05 17:24:00,
2013-04-05 12:29:00,45.1,23.4,30.15,East,87,5.8,5.8,42,0.00,,,0.00,WeatherDisplay:10.37,2013-04-05 17:29:00,
2013-04-05 12:34:00,45.1,23.4,30.12,North,4,3.5,3.5,42,0.00,,,0.00,WeatherDisplay:10.37,2013-04-05 17:34:00,
2013-04-05 12:39:00,45.5,23.7,30.12,ENE,62,4.6,4.6,42,0.00,,,0.00,WeatherDisplay:10.37,2013-04-05 17:39:00,
2013-04-05 12:44:00,46.0,24.2,30.12,ENE,74,5.8,5.8,42,0.00,,,0.00,WeatherDisplay:10.37,2013-04-05 17:44:00,
2013-04-05 12:50:00,46.4,24.5,30.12,ENE,76,3.5,3.6,42,0.00,,,0.00,WeatherDisplay:10.37,2013-04-05 17:50:00,
2013-04-05 12:55:00,46.8,24.9,30.12,ENE,70,8.1,8.1,42,0.00,,,0.00,WeatherDisplay:10.37,2013-04-05 17:55:00,
2013-04-05 13:00:00,46.8,24.9,30.12,East,85,5.8,5.8,42,0.00,,,0.00,WeatherDisplay:10.37,2013-04-05 18:00:00,
2013-04-05 13:05:00,46.8,24.9,30.09,East,85,3.5,3.5,42,0.00,,,0.00,WeatherDisplay:10.37,2013-04-05 18:05:00,
2013-04-05 13:11:00,46.8,24.9,30.09,East,81,3.6,3.6,42,0.00,,,0.00,WeatherDisplay:10.37,2013-04-05 18:11:00,
2013-04-05 13:16:00,47.3,25.3,30.09,SSE,165,3.5,3.5,42,0.00,,,0.00,WeatherDisplay:10.37,2013-04-05 18:16:00,
2013-04-05 13:21:00,47.5,25.5,30.12,SSE,165,3.5,3.5,42,0.00,,,0.00,WeatherDisplay:10.37,2013-04-05 18:21:00,
2013-04-05 13:26:00,47.3,25.3,30.12,SSW,205,0.0,0.0,42,0.00,,,0.00,WeatherDisplay:10.37,2013-04-05 18:26:00,
2013-04-05 13:32:00,47.3,25.3,30.12,East,81,5.8,5.8,42,0.00,,,0.00,WeatherDisplay:10.37,2013-04-05 18:32:00,
2013-04-05 13:37:00,47.3,25.3,30.12,NE,56,3.5,3.5,42,0.00,,,0.00,WeatherDisplay:10.37,2013-04-05 18:37:00,
2013-04-05 13:42:00,47.5,25.5,30.12,East,92,5.8,5.8,42,0.00,,,0.00,WeatherDisplay:10.37,2013-04-05 18:42:00,
2013-04-05 13:48:00,47.7,25.7,30.12,SE,124,3.5,3.5,42,0.00,,,0.00,WeatherDisplay:10.37,2013-04-05 18:48:00,
2013-04-05 13:53:00,47.7,25.7,30.12,East,89,3.5,3.5,42,0.00,,,0.00,WeatherDisplay:10.37,2013-04-05 18:53:00,
2013-04-05 13:58:00,47.8,24.0,30.12,NE,53,4.6,4.6,39,0.00,,,0.00,WeatherDisplay:10.37,2013-04-05 18:58:00,
2013-04-05 14:04:00,47.7,23.9,30.12,ESE,102,6.3,6.3,39,0.00,,,0.00,WeatherDisplay:10.37,2013-04-05 19:04:00,
2013-04-05 14:09:00,47.5,23.7,30.12,East,82,2.2,0.0,39,0.00,,,0.00,WeatherDisplay:10.37,2013-04-05 19:09:00,
2013-04-05 14:14:00,47.7,23.9,30.12,East,89,3.5,0.0,39,0.00,,,0.00,WeatherDisplay:10.37,2013-04-05 19:14:00,
2013-04-05 14:19:00,47.5,23.7,30.09,East,87,3.5,3.5,39,0.00,,,0.00,WeatherDisplay:10.37,2013-04-05 19:19:00,
2013-04-05 14:24:00,47.1,23.4,30.09,East,100,5.8,0.0,39,0.00,,,0.00,WeatherDisplay:10.37,2013-04-05 19:24:00,
2013-04-05 14:29:00,46.9,23.2,30.09,SSE,160,0.0,0.0,39,0.00,,,0.00,WeatherDisplay:10.37,2013-04-05 19:29:00,
2013-04-05 14:34:00,47.1,23.4,30.09,SSE,166,3.5,3.5,39,0.00,,,0.00,WeatherDisplay:10.37,2013-04-05 19:34:00,
2013-04-05 14:39:00,46.9,23.2,30.09,ENE,73,3.6,3.6,39,0.00,,,0.00,WeatherDisplay:10.37,2013-04-05 19:39:00,
2013-04-05 14:45:00,46.9,23.2,30.09,East,91,3.6,3.6,39,0.00,,,0.00,WeatherDisplay:10.37,2013-04-05 19:45:00,
2013-04-05 14:50:00,47.1,23.4,30.09,ENE,76,5.8,5.8,39,0.00,,,0.00,WeatherDisplay:10.37,2013-04-05 19:50:00,
2013-04-05 14:55:00,47.1,23.4,30.09,East,90,4.6,4.6,39,0.00,,,0.00,WeatherDisplay:10.37,2013-04-05 19:55:00,
2013-04-05 15:00:00,46.9,23.2,30.09,East,80,5.8,5.8,39,0.00,,,0.00,WeatherDisplay:10.37,2013-04-05 20:00:00,
2013-04-05 15:05:00,46.6,22.9,30.09,ENE,72,6.3,6.3,39,0.00,,,0.00,WeatherDisplay:10.37,2013-04-05 20:05:00,
2013-04-05 15:10:00,46.0,23.0,30.09,East,79,5.8,5.8,40,0.00,,,0.00,WeatherDisplay:10.37,2013-04-05 20:10:00,
2013-04-05 15:15:00,45.9,22.9,30.09,NE,37,3.5,3.5,40,0.00,,,0.00,WeatherDisplay:10.37,2013-04-05 20:15:00,
2013-04-05 15:20:00,45.5,22.5,30.09,East,83,5.8,5.8,40,0.00,,,0.00,WeatherDisplay:10.37,2013-04-05 20:20:00,
2013-04-05 15:25:00,45.1,22.2,30.09,NE,56,5.8,5.8,40,0.00,,,0.00,WeatherDisplay:10.37,2013-04-05 20:25:00,
2013-04-05 15:30:00,45.0,22.1,30.09,ENE,72,6.3,6.3,40,0.00,,,0.00,WeatherDisplay:10.37,2013-04-05 20:30:00,
2013-04-05 15:36:00,44.6,21.7,30.09,NE,35,3.6,3.6,40,0.00,,,0.00,WeatherDisplay:10.37,2013-04-05 20:36:00,
2013-04-05 15:41:00,44.2,21.4,30.09,East,88,4.6,4.6,40,0.00,,,0.00,WeatherDisplay:10.37,2013-04-05 20:41:00,
2013-04-05 15:46:00,44.1,21.3,30.09,East,85,4.6,4.6,40,0.00,,,0.00,WeatherDisplay:10.37,2013-04-05 20:46:00,
2013-04-05 15:51:00,43.7,20.9,30.09,ENE,66,3.5,3.5,40,0.00,,,0.00,WeatherDisplay:10.37,2013-04-05 20:51:00,
2013-04-05 15:56:00,43.5,20.8,30.09,NE,46,8.1,8.1,40,0.00,,,0.00,WeatherDisplay:10.37,2013-04-05 20:56:00,
2013-04-05 16:01:00,43.3,20.6,30.09,NE,54,6.3,6.3,40,0.00,,,0.00,WeatherDisplay:10.37,2013-04-05 21:01:00,
2013-04-05 16:06:00,43.0,20.3,30.09,ENE,75,4.6,4.6,40,0.00,,,0.00,WeatherDisplay:10.37,2013-04-05 21:06:00,
2013-04-05 16:11:00,42.6,20.5,30.09,NE,41,5.8,5.8,41,0.00,,,0.00,WeatherDisplay:10.37,2013-04-05 21:11:00,
2013-04-05 16:17:00,42.3,20.2,30.09,ENE,59,5.8,5.8,41,0.00,,,0.00,WeatherDisplay:10.37,2013-04-05 21:17:00,
2013-04-05 16:22:00,42.1,20.0,30.09,East,81,4.6,4.6,41,0.00,,,0.00,WeatherDisplay:10.37,2013-04-05 21:22:00,
2013-04-05 16:27:00,42.3,20.2,30.09,East,86,3.5,0.0,41,0.00,,,0.00,WeatherDisplay:10.37,2013-04-05 21:27:00,
2013-04-05 16:32:00,42.4,21.5,30.06,ESE,102,3.5,3.5,43,0.00,,,0.00,WeatherDisplay:10.37,2013-04-05 21:32:00,
2013-04-05 16:37:00,42.3,20.2,30.06,East,90,5.8,5.8,41,0.00,,,0.00,WeatherDisplay:10.37,2013-04-05 21:37:00,
2013-04-05 16:43:00,42.1,20.0,30.06,ESE,105,4.6,4.6,41,0.00,,,0.00,WeatherDisplay:10.37,2013-04-05 21:43:00,
2013-04-05 16:48:00,42.1,20.0,30.06,NE,45,3.6,3.6,41,0.00,,,0.00,WeatherDisplay:10.37,2013-04-05 21:48:00,
2013-04-05 16:53:00,42.1,20.0,30.06,East,88,3.5,3.5,41,0.00,,,0.00,WeatherDisplay:10.37,2013-04-05 21:53:00,
2013-04-05 16:59:00,42.3,21.3,30.06,East,95,3.5,3.5,43,0.00,,,0.00,WeatherDisplay:10.37,2013-04-05 21:59:00,
2013-04-05 17:04:00,42.4,20.4,30.06,East,88,3.5,3.5,41,0.00,,,0.00,WeatherDisplay:10.37,2013-04-05 22:04:00,
2013-04-05 17:09:00,42.3,20.2,30.06,East,94,3.5,3.5,41,0.00,,,0.00,WeatherDisplay:10.37,2013-04-05 22:09:00,
2013-04-05 17:14:00,42.1,21.2,30.06,East,87,3.5,3.5,43,0.00,,,0.00,WeatherDisplay:10.37,2013-04-05 22:14:00,
2013-04-05 17:19:00,41.7,19.7,30.06,East,92,3.5,3.5,41,0.00,,,0.00,WeatherDisplay:10.37,2013-04-05 22:19:00,
2013-04-05 17:24:00,41.4,19.4,30.06,East,87,3.5,3.5,41,0.00,,,0.00,WeatherDisplay:10.37,2013-04-05 22:24:00,
2013-04-05 17:29:00,41.0,19.1,30.06,ESE,115,5.8,5.8,41,0.00,,,0.00,WeatherDisplay:10.37,2013-04-05 22:29:00,
2013-04-05 17:34:00,40.8,18.9,30.06,East,83,5.8,5.8,41,0.00,,,0.00,WeatherDisplay:10.37,2013-04-05 22:34:00,
2013-04-05 17:39:00,40.5,18.6,30.06,ENE,77,5.4,5.4,41,0.00,,,0.00,WeatherDisplay:10.37,2013-04-05 22:39:00,
2013-04-05 17:44:00,40.1,18.3,30.06,SE,129,4.0,4.0,41,0.00,,,0.00,WeatherDisplay:10.37,2013-04-05 22:44:00,
2013-04-05 17:50:00,39.9,18.1,30.03,East,87,4.6,4.6,41,0.00,,,0.00,WeatherDisplay:10.37,2013-04-05 22:50:00,
2013-04-05 17:55:00,39.6,17.8,30.03,East,84,5.8,5.8,41,0.00,,,0.00,WeatherDisplay:10.37,2013-04-05 22:55:00,
2013-04-05 18:00:00,39.4,17.6,30.03,East,97,5.8,5.8,41,0.00,,,0.00,WeatherDisplay:10.37,2013-04-05 23:00:00,
2013-04-05 18:05:00,39.4,17.6,30.06,East,87,3.5,3.5,41,0.00,,,0.00,WeatherDisplay:10.37,2013-04-05 23:05:00,
2013-04-05 18:10:00,39.2,17.4,30.06,ENE,76,5.8,5.8,41,0.00,,,0.00,WeatherDisplay:10.37,2013-04-05 23:10:00,
2013-04-05 18:15:00,39.0,17.3,30.06,East,95,3.5,3.5,41,0.00,,,0.00,WeatherDisplay:10.37,2013-04-05 23:15:00,
2013-04-05 18:20:00,38.8,17.1,30.03,East,81,5.8,5.8,41,0.00,,,0.00,WeatherDisplay:10.37,2013-04-05 23:20:00,
2013-04-05 18:26:00,38.7,17.0,30.03,ESE,108,5.8,5.8,41,0.00,,,0.00,WeatherDisplay:10.37,2013-04-05 23:26:00,
2013-04-05 18:31:00,38.5,18.4,30.03,East,91,5.8,5.8,44,0.00,,,0.00,WeatherDisplay:10.37,2013-04-05 23:31:00,
2013-04-05 18:36:00,38.3,18.3,30.03,East,95,4.6,4.6,44,0.00,,,0.00,WeatherDisplay:10.37,2013-04-05 23:36:00,
2013-04-05 18:41:00,38.1,18.1,30.03,SE,140,5.8,5.8,44,0.00,,,0.00,WeatherDisplay:10.37,2013-04-05 23:41:00,
2013-04-05 18:47:00,37.9,17.9,30.03,East,85,5.8,5.8,44,0.00,,,0.00,WeatherDisplay:10.37,2013-04-05 23:47:00,
2013-04-05 18:52:00,37.8,17.8,30.03,East,93,3.6,3.6,44,0.00,,,0.00,WeatherDisplay:10.37,2013-04-05 23:52:00,
2013-04-05 18:57:00,37.6,17.6,30.03,ENE,74,5.8,5.8,44,0.00,,,0.00,WeatherDisplay:10.37,2013-04-05 23:57:00,
2013-04-05 19:03:00,37.4,17.4,30.00,East,91,5.8,5.8,44,0.00,,,0.00,WeatherDisplay:10.37,2013-04-06 00:03:00,
2013-04-05 19:08:00,37.0,17.1,30.00,East,86,3.5,3.5,44,0.00,,,0.00,WeatherDisplay:10.37,2013-04-06 00:08:00,
2013-04-05 19:13:00,37.0,17.1,30.00,East,100,3.5,3.5,44,0.00,,,0.00,WeatherDisplay:10.37,2013-04-06 00:13:00,
2013-04-05 19:18:00,36.9,17.0,30.00,East,88,3.5,3.6,44,0.00,,,0.00,WeatherDisplay:10.37,2013-04-06 00:18:00,
2013-04-05 19:23:00,36.9,17.0,30.00,ENE,74,3.5,3.5,44,0.00,,,0.00,WeatherDisplay:10.37,2013-04-06 00:23:00,
2013-04-05 19:28:00,36.7,16.8,30.00,East,79,0.0,0.0,44,0.00,,,0.00,WeatherDisplay:10.37,2013-04-06 00:28:00,
2013-04-05 19:33:00,36.7,18.3,30.00,NE,52,6.9,6.9,47,0.00,,,0.00,WeatherDisplay:10.37,2013-04-06 00:33:00,
2013-04-05 19:39:00,36.5,18.2,30.00,East,84,3.5,3.6,47,0.00,,,0.00,WeatherDisplay:10.37,2013-04-06 00:39:00,
2013-04-05 19:44:00,36.5,18.2,30.00,East,81,4.6,4.6,47,0.00,,,0.00,WeatherDisplay:10.37,2013-04-06 00:44:00,
2013-04-05 19:49:00,36.3,18.0,30.00,East,100,5.4,5.4,47,0.00,,,0.00,WeatherDisplay:10.37,2013-04-06 00:49:00,
2013-04-05 19:54:00,36.3,18.0,30.00,East,88,5.8,5.8,47,0.00,,,0.00,WeatherDisplay:10.37,2013-04-06 00:54:00,
2013-04-05 19:59:00,36.3,18.0,30.00,ENE,76,5.8,5.8,47,0.00,,,0.00,WeatherDisplay:10.37,2013-04-06 00:59:00,
2013-04-05 20:04:00,36.3,18.0,30.00,East,93,3.5,3.5,47,0.00,,,0.00,WeatherDisplay:10.37,2013-04-06 01:04:00,
2013-04-05 20:10:00,36.3,18.0,30.00,East,82,3.5,0.0,47,0.00,,,0.00,WeatherDisplay:10.37,2013-04-06 01:10:00,
2013-04-05 20:15:00,36.3,18.0,30.00,East,83,5.8,5.8,47,0.00,,,0.00,WeatherDisplay:10.37,2013-04-06 01:15:00,
2013-04-05 20:20:00,36.3,18.0,30.00,ENE,72,4.0,4.0,47,0.00,,,0.00,WeatherDisplay:10.37,2013-04-06 01:20:00,
2013-04-05 20:25:00,36.3,18.0,30.00,East,80,3.6,3.6,47,0.00,,,0.00,WeatherDisplay:10.37,2013-04-06 01:25:00,
2013-04-05 20:30:00,36.3,18.0,30.00,East,99,3.5,3.5,47,0.00,,,0.00,WeatherDisplay:10.37,2013-04-06 01:30:00,
2013-04-05 20:35:00,36.3,19.0,30.00,ESE,105,4.6,4.6,49,0.00,,,0.00,WeatherDisplay:10.37,2013-04-06 01:35:00,
2013-04-05 20:40:00,36.1,18.8,30.00,East,85,3.5,3.5,49,0.00,,,0.00,WeatherDisplay:10.37,2013-04-06 01:40:00,
2013-04-05 20:45:00,36.0,19.1,30.00,East,86,4.6,4.6,50,0.00,,,0.00,WeatherDisplay:10.37,2013-04-06 01:45:00,
2013-04-05 20:50:00,36.0,19.1,30.00,East,91,5.8,5.8,50,0.00,,,0.00,WeatherDisplay:10.37,2013-04-06 01:50:00,
2013-04-05 20:55:00,35.8,19.4,30.00,East,83,3.6,0.0,51,0.00,,,0.00,WeatherDisplay:10.37,2013-04-06 01:55:00,
2013-04-05 21:01:00,35.4,19.5,30.00,ESE,121,5.8,5.8,52,0.00,,,0.00,WeatherDisplay:10.37,2013-04-06 02:01:00,
2013-04-05 21:06:00,34.9,19.9,30.00,SSE,147,2.3,0.0,54,0.00,,,0.00,WeatherDisplay:10.37,2013-04-06 02:06:00,
2013-04-05 21:11:00,34.5,20.4,30.00,ESE,107,3.5,3.5,56,0.00,,,0.00,WeatherDisplay:10.37,2013-04-06 02:11:00,
2013-04-05 21:17:00,34.2,20.9,30.00,ESE,108,0.0,0.0,58,0.00,,,0.00,WeatherDisplay:10.37,2013-04-06 02:17:00,
2013-04-05 21:22:00,34.0,21.5,30.03,SE,140,2.3,0.0,60,0.00,,,0.00,WeatherDisplay:10.37,2013-04-06 02:22:00,
2013-04-05 21:27:00,33.6,21.6,30.03,East,95,0.0,0.0,61,0.00,,,0.00,WeatherDisplay:10.37,2013-04-06 02:27:00,
2013-04-05 21:32:00,33.4,21.4,30.03,SE,125,0.0,0.0,61,0.00,,,0.00,WeatherDisplay:10.37,2013-04-06 02:32:00,
2013-04-05 21:37:00,33.3,21.6,30.00,SE,127,0.0,0.0,62,0.00,,,0.00,WeatherDisplay:10.37,2013-04-06 02:37:00,
2013-04-05 21:42:00,33.1,21.8,30.00,SE,126,0.0,0.0,63,0.00,,,0.00,WeatherDisplay:10.37,2013-04-06 02:42:00,
2013-04-05 21:47:00,33.1,22.2,30.03,ESE,113,0.0,0.0,64,0.00,,,0.00,WeatherDisplay:10.37,2013-04-06 02:47:00,
2013-04-05 21:52:00,32.9,22.0,30.03,ESE,103,0.0,0.0,64,0.00,,,0.00,WeatherDisplay:10.37,2013-04-06 02:52:00,
2013-04-05 21:57:00,32.9,22.4,30.03,East,96,0.0,0.0,65,0.00,,,0.00,WeatherDisplay:10.37,2013-04-06 02:57:00,
2013-04-05 22:03:00,32.9,22.8,30.03,East,91,0.0,0.0,66,0.00,,,0.00,WeatherDisplay:10.37,2013-04-06 03:03:00,
2013-04-05 22:08:00,32.7,22.6,30.03,East,91,0.0,0.0,66,0.00,,,0.00,WeatherDisplay:10.37,2013-04-06 03:08:00,
2013-04-05 22:13:00,32.7,23.0,30.03,East,98,0.0,0.0,67,0.00,,,0.00,WeatherDisplay:10.37,2013-04-06 03:13:00,
2013-04-05 22:19:00,32.7,23.3,30.00,East,98,0.0,0.0,68,0.00,,,0.00,WeatherDisplay:10.37,2013-04-06 03:19:00,
2013-04-05 22:24:00,32.7,23.7,30.00,East,99,0.0,0.0,69,0.00,,,0.00,WeatherDisplay:10.37,2013-04-06 03:24:00,
2013-04-05 22:29:00,32.7,23.7,30.00,East,97,0.0,0.0,69,0.00,,,0.00,WeatherDisplay:10.37,2013-04-06 03:29:00,
2013-04-05 22:34:00,32.7,24.0,30.00,SE,125,0.0,0.0,70,0.00,,,0.00,WeatherDisplay:10.37,2013-04-06 03:34:00,
2013-04-05 22:39:00,32.7,24.0,30.00,SE,132,0.0,0.0,70,0.00,,,0.00,WeatherDisplay:10.37,2013-04-06 03:39:00,
2013-04-05 22:44:00,32.7,24.3,30.00,SE,143,0.0,0.0,71,0.00,,,0.00,WeatherDisplay:10.37,2013-04-06 03:44:00,
2013-04-05 22:49:00,32.7,24.3,30.00,SSE,154,0.0,0.0,71,0.00,,,0.00,WeatherDisplay:10.37,2013-04-06 03:49:00,
2013-04-05 22:54:00,32.7,24.3,30.00,SE,126,0.0,0.0,71,0.00,,,0.00,WeatherDisplay:10.37,2013-04-06 03:54:00,
2013-04-05 22:59:00,32.7,24.7,30.00,SE,129,0.0,0.0,72,0.00,,,0.00,WeatherDisplay:10.37,2013-04-06 03:59:00,
2013-04-05 23:00:00,32.7,24.7,30.00,SE,129,0.0,0.0,72,0.00,,,0.00,WeatherDisplay:10.37,2013-04-06 04:00:00,
2013-04-05 23:01:00,32.7,24.7,30.00,ESE,106,0.0,0.0,72,0.00,,,0.00,WeatherDisplay:10.37,2013-04-06 04:01:00,
2013-04-05 23:06:00,32.9,24.9,30.00,East,91,0.0,0.0,72,0.00,,,0.00,WeatherDisplay:10.37,2013-04-06 04:06:00,
2013-04-05 23:12:00,32.9,24.9,30.00,East,92,0.0,0.0,72,0.00,,,0.00,WeatherDisplay:10.37,2013-04-06 04:12:00,
2013-04-05 23:17:00,32.9,25.2,30.00,East,88,3.5,0.0,73,0.00,,,0.00,WeatherDisplay:10.37,2013-04-06 04:17:00,
2013-04-05 23:22:00,32.9,25.2,29.97,ENE,76,3.5,0.0,73,0.00,,,0.00,WeatherDisplay:10.37,2013-04-06 04:22:00,
2013-04-05 23:27:00,32.9,25.2,29.97,East,87,0.0,0.0,73,0.00,,,0.00,WeatherDisplay:10.37,2013-04-06 04:27:00,
2013-04-05 23:32:00,32.9,25.5,29.97,East,90,2.3,0.0,74,0.00,,,0.00,WeatherDisplay:10.37,2013-04-06 04:32:00,
2013-04-05 23:37:00,32.9,25.5,29.97,East,95,2.3,0.0,74,0.00,,,0.00,WeatherDisplay:10.37,2013-04-06 04:37:00,
2013-04-05 23:42:00,33.1,25.7,29.97,East,81,3.5,3.5,74,0.00,,,0.00,WeatherDisplay:10.37,2013-04-06 04:42:00,
2013-04-05 23:47:00,33.1,25.7,29.94,East,87,4.6,4.6,74,0.00,,,0.00,WeatherDisplay:10.37,2013-04-06 04:47:00,
2013-04-05 23:52:00,33.1,26.0,29.94,South,178,4.0,0.0,75,0.00,,,0.00,WeatherDisplay:10.37,2013-04-06 04:52:00,
2013-04-05 23:57:00,33.1,26.0,29.94,East,93,2.3,0.0,75,0.00,,,0.00,WeatherDisplay:10.37,2013-04-06 04:57:00,